createdAt,value
2023-04-25T00:01:14.415Z,11.80
2023-04-25T00:03:44.721Z,11.79
2023-04-25T00:06:14.381Z,11.77
2023-04-25T00:08:42.864Z,11.74
2023-04-25T00:11:11.449Z,11.74
2023-04-25T00:13:42.788Z,11.71
2023-04-25T00:16:11.951Z,11.68
2023-04-25T00:18:40.890Z,11.63
2023-04-25T00:21:10.950Z,11.58
2023-04-25T00:23:40.199Z,11.54
2023-04-25T00:26:08.881Z,11.51
2023-04-25T00:28:37.665Z,11.46
2023-04-25T00:31:06.478Z,11.44
2023-04-25T00:33:35.912Z,11.47
2023-04-25T00:36:04.521Z,11.48
2023-04-25T00:38:35.050Z,11.49
2023-04-25T00:41:06.039Z,11.49
2023-04-25T00:43:37.451Z,11.43
2023-04-25T00:46:06.599Z,11.36
2023-04-25T00:48:35.139Z,11.33
2023-04-25T00:51:04.123Z,11.26
2023-04-25T00:53:37.372Z,11.27
2023-04-25T00:56:07.119Z,11.24
2023-04-25T00:58:35.885Z,11.14
2023-04-25T01:01:05.271Z,11.15
2023-04-25T01:03:36.919Z,11.18
2023-04-25T01:06:05.726Z,11.17
2023-04-25T01:08:39.136Z,11.15
2023-04-25T01:11:07.776Z,11.17
2023-04-25T01:13:37.629Z,11.16
2023-04-25T01:16:07.775Z,11.19
2023-04-25T01:18:36.830Z,11.20
2023-04-25T01:21:11.144Z,11.18
2023-04-25T01:23:41.527Z,11.10
2023-04-25T01:26:12.242Z,11.13
2023-04-25T01:28:42.858Z,11.14
2023-04-25T01:31:13.814Z,11.15
2023-04-25T01:33:42.723Z,11.19
2023-04-25T01:36:13.470Z,11.28
2023-04-25T01:38:42.532Z,11.32
2023-04-25T01:41:11.744Z,11.29
2023-04-25T01:43:41.187Z,11.15
2023-04-25T01:46:09.825Z,11.02
2023-04-25T01:48:38.417Z,10.87
2023-04-25T01:51:07.202Z,10.72
2023-04-25T01:53:37.320Z,10.65
2023-04-25T01:56:07.816Z,10.73
2023-04-25T01:58:38.177Z,10.80
2023-04-25T02:01:26.965Z,10.85
2023-04-25T02:04:13.503Z,10.90
2023-04-25T02:06:43.063Z,10.94
2023-04-25T02:09:13.158Z,10.91
2023-04-25T02:11:46.898Z,10.83
2023-04-25T02:14:28.487Z,10.74
2023-04-25T02:17:19.048Z,10.60
2023-04-25T02:19:51.363Z,10.55
2023-04-25T02:22:19.881Z,10.49
2023-04-25T02:24:50.197Z,10.46
2023-04-25T02:27:20.682Z,10.37
2023-04-25T02:29:49.269Z,10.29
2023-04-25T02:32:17.996Z,10.32
2023-04-25T02:34:46.478Z,10.36
2023-04-25T02:37:14.851Z,10.42
2023-04-25T02:39:43.193Z,10.46
2023-04-25T02:42:13.172Z,10.52
2023-04-25T02:44:41.771Z,10.53
2023-04-25T02:47:10.256Z,10.54
2023-04-25T02:49:38.766Z,10.53
2023-04-25T02:52:07.863Z,10.54
2023-04-25T02:54:39.498Z,10.55
2023-04-25T02:57:08.121Z,10.49
2023-04-25T02:59:40.624Z,10.51
2023-04-25T03:02:09.472Z,10.46
2023-04-25T03:04:38.076Z,10.45
2023-04-25T03:07:06.787Z,10.45
2023-04-25T03:09:35.901Z,10.47
2023-04-25T03:12:05.124Z,10.46
2023-04-25T03:14:35.607Z,10.48
2023-04-25T03:17:05.542Z,10.51
2023-04-25T03:19:34.001Z,10.55
2023-04-25T03:22:02.771Z,10.59
2023-04-25T03:24:31.545Z,10.59
2023-04-25T03:27:01.084Z,10.66
2023-04-25T03:29:30.394Z,10.69
2023-04-25T03:32:01.324Z,10.75
2023-04-25T03:34:31.801Z,10.84
2023-04-25T03:37:00.458Z,10.91
2023-04-25T03:39:29.642Z,10.97
2023-04-25T03:41:58.802Z,11.08
2023-04-25T03:44:27.578Z,11.13
2023-04-25T03:46:56.815Z,11.17
2023-04-25T03:49:28.402Z,11.21
2023-04-25T03:52:06.221Z,11.28
2023-04-25T03:54:41.553Z,11.33
2023-04-25T03:57:17.091Z,11.38
2023-04-25T03:59:46.374Z,11.47
2023-04-25T04:02:17.048Z,11.58
2023-04-25T04:04:47.484Z,11.67
2023-04-25T04:07:18.513Z,11.73
2023-04-25T04:09:51.227Z,11.77
2023-04-25T04:12:29.226Z,11.82
2023-04-25T04:14:58.319Z,11.88
2023-04-25T04:17:27.038Z,11.92
2023-04-25T04:19:56.085Z,11.97
2023-04-25T04:22:27.264Z,12.00
2023-04-25T04:25:00.030Z,12.03
2023-04-25T04:28:07.246Z,12.03
2023-04-25T04:30:48.937Z,12.09
2023-04-25T04:33:20.095Z,12.09
2023-04-25T04:35:56.769Z,12.08
2023-04-25T04:38:27.566Z,12.06
2023-04-25T04:41:01.852Z,12.06
2023-04-25T04:43:51.461Z,12.06
2023-04-25T04:46:43.393Z,12.04
2023-04-25T04:49:31.327Z,12.03
2023-04-25T04:52:32.193Z,12.00
2023-04-25T04:55:25.981Z,11.96
2023-04-25T04:58:06.860Z,11.93
2023-04-25T05:00:49.779Z,11.91
2023-04-25T05:03:55.640Z,11.93
2023-04-25T05:06:57.352Z,11.95
2023-04-25T05:09:51.506Z,11.90
2023-04-25T05:12:40.443Z,11.93
2023-04-25T05:15:38.236Z,11.92
2023-04-25T05:18:37.575Z,11.91
2023-04-25T05:21:26.537Z,11.90
2023-04-25T05:24:13.905Z,11.88
2023-04-25T05:27:22.512Z,11.84
2023-04-25T05:30:15.705Z,11.86
2023-04-25T05:33:03.143Z,11.82
2023-04-25T05:35:32.450Z,11.79
2023-04-25T05:38:01.460Z,11.82
2023-04-25T05:40:53.506Z,11.84
2023-04-25T05:44:01.081Z,11.85
2023-04-25T05:46:46.568Z,11.87
2023-04-25T05:49:33.643Z,11.87
2023-04-25T05:52:33.932Z,11.86
2023-04-25T05:55:11.629Z,11.84
2023-04-25T05:57:43.569Z,11.78
2023-04-25T06:00:14.118Z,11.71
2023-04-25T06:02:44.823Z,11.67
2023-04-25T06:05:16.350Z,11.71
2023-04-25T06:07:46.947Z,11.75
2023-04-25T06:10:16.664Z,11.72
2023-04-25T06:12:45.304Z,11.76
2023-04-25T06:15:28.010Z,11.77
2023-04-25T06:17:59.332Z,11.78
2023-04-25T06:20:28.248Z,11.79
2023-04-25T06:22:59.798Z,11.78
2023-04-25T06:25:42.527Z,11.82
2023-04-25T06:28:13.775Z,11.78
2023-04-25T06:30:43.408Z,11.77
2023-04-25T06:33:17.378Z,11.69
2023-04-25T06:35:46.803Z,11.59
2023-04-25T06:38:18.933Z,11.60
2023-04-25T06:40:50.982Z,11.57
2023-04-25T06:43:20.536Z,11.51
2023-04-25T06:46:04.362Z,11.46
2023-04-25T06:48:37.038Z,11.46
2023-04-25T06:51:07.520Z,11.50
2023-04-25T06:53:37.778Z,11.52
2023-04-25T06:56:09.399Z,11.55
2023-04-25T06:58:53.059Z,11.47
2023-04-25T07:01:39.646Z,11.40
2023-04-25T07:04:15.391Z,11.36
2023-04-25T07:06:57.551Z,11.35
2023-04-25T07:09:35.231Z,11.28
2023-04-25T07:12:04.763Z,11.22
2023-04-25T07:14:33.994Z,11.17
2023-04-25T07:17:03.269Z,11.14
2023-04-25T07:19:35.877Z,11.06
2023-04-25T07:22:05.434Z,11.03
2023-04-25T07:24:35.700Z,11.00
2023-04-25T07:27:06.009Z,10.96
2023-04-25T07:29:57.543Z,10.93
2023-04-25T07:32:27.969Z,10.89
2023-04-25T07:34:58.084Z,10.87
2023-04-25T07:37:27.884Z,10.82
2023-04-25T07:40:11.509Z,10.77
2023-04-25T07:42:46.102Z,10.72
2023-04-25T07:45:22.685Z,10.67
2023-04-25T07:47:51.321Z,10.64
2023-04-25T07:50:21.684Z,10.61
2023-04-25T07:52:50.430Z,10.60
2023-04-25T07:55:34.080Z,10.55
2023-04-25T07:58:09.439Z,10.49
2023-04-25T08:00:40.630Z,10.42
2023-04-25T08:03:42.008Z,10.37
2023-04-25T08:06:19.263Z,10.34
2023-04-25T08:09:20.788Z,10.33
2023-04-25T08:11:51.834Z,10.33
2023-04-25T08:14:25.693Z,10.34
2023-04-25T08:16:54.720Z,10.35
2023-04-25T08:19:23.620Z,10.32
2023-04-25T08:21:56.836Z,10.36
2023-04-25T08:24:32.276Z,10.40
2023-04-25T08:27:35.255Z,10.47
2023-04-25T08:30:04.493Z,10.47
2023-04-25T08:32:33.273Z,10.47
2023-04-25T08:35:20.720Z,10.43
2023-04-25T08:37:51.432Z,10.43
2023-04-25T08:40:27.191Z,10.35
2023-04-25T08:43:05.821Z,10.23
2023-04-25T08:45:35.863Z,10.14
2023-04-25T08:48:06.851Z,10.07
2023-04-25T08:50:39.757Z,10.08
2023-04-25T08:53:17.684Z,10.10
2023-04-25T08:55:49.012Z,10.08
2023-04-25T08:58:26.616Z,10.05
2023-04-25T09:00:56.708Z,10.10
2023-04-25T09:03:29.363Z,10.09
2023-04-25T09:05:59.072Z,10.08
2023-04-25T09:08:41.911Z,10.09
2023-04-25T09:11:12.523Z,10.04
2023-04-25T09:13:41.796Z,10.03
2023-04-25T09:16:29.770Z,10.06
2023-04-25T09:19:38.055Z,10.08
2023-04-25T09:22:15.823Z,10.10
2023-04-25T09:24:50.031Z,10.10
2023-04-25T09:27:24.164Z,10.10
2023-04-25T09:30:00.568Z,10.15
2023-04-25T09:32:31.997Z,10.18
2023-04-25T09:35:01.018Z,10.24
2023-04-25T09:37:33.075Z,10.27
2023-04-25T09:40:11.395Z,10.28
2023-04-25T09:43:00.352Z,10.27
2023-04-25T09:45:32.700Z,10.27
2023-04-25T09:48:07.279Z,10.24
2023-04-25T09:50:40.553Z,10.26
2023-04-25T09:53:13.063Z,10.25
2023-04-25T09:55:58.907Z,10.27
2023-04-25T09:58:34.264Z,10.32
2023-04-25T10:01:06.938Z,10.37
2023-04-25T10:03:45.588Z,10.44
2023-04-25T10:06:40.077Z,10.49
2023-04-25T10:09:09.796Z,10.58
2023-04-25T10:11:41.884Z,10.62
2023-04-25T10:14:11.185Z,10.56
2023-04-25T10:16:40.970Z,10.55
2023-04-25T10:19:09.840Z,10.54
2023-04-25T10:21:45.227Z,10.49
2023-04-25T10:24:14.342Z,10.47
2023-04-25T10:26:45.083Z,10.47
2023-04-25T10:29:13.819Z,10.47
2023-04-25T10:31:48.630Z,10.46
2023-04-25T10:34:18.131Z,10.48
2023-04-25T10:36:55.163Z,10.57
2023-04-25T10:39:29.654Z,10.68
2023-04-25T10:42:01.238Z,10.81
2023-04-25T10:44:30.904Z,10.88
2023-04-25T10:47:02.875Z,10.94
2023-04-25T10:49:32.402Z,11.03
2023-04-25T10:52:15.166Z,11.05
2023-04-25T10:54:45.145Z,11.05
2023-04-25T10:57:34.803Z,11.07
2023-04-25T11:00:10.746Z,11.10
2023-04-25T11:02:40.728Z,11.11
2023-04-25T11:05:10.006Z,11.15
2023-04-25T11:10:42.382Z,11.05
2023-04-25T11:13:12.517Z,11.01
2023-04-25T11:14:38.005Z,11.08
2023-04-25T11:15:41.512Z,10.97
2023-04-25T11:18:10.614Z,10.98
2023-04-25T11:20:39.298Z,11.00
2023-04-25T11:23:07.949Z,10.99
2023-04-25T11:25:38.620Z,10.97
2023-04-25T11:28:07.891Z,10.94
2023-04-25T11:30:39.621Z,10.93
2023-04-25T11:33:08.144Z,10.90
2023-04-25T11:35:37.633Z,10.91
2023-04-25T11:38:06.895Z,10.93
2023-04-25T11:40:36.257Z,10.96
2023-04-25T11:43:05.663Z,10.93
2023-04-25T11:45:34.438Z,10.87
2023-04-25T11:48:05.974Z,10.91
2023-04-25T11:50:35.019Z,10.86
2023-04-25T11:53:04.144Z,10.83
2023-04-25T11:55:33.742Z,10.79
2023-04-25T11:58:03.688Z,10.77
2023-04-25T12:00:33.434Z,10.80
2023-04-25T12:03:04.034Z,10.87
2023-04-25T12:05:35.780Z,10.95
2023-04-25T12:08:23.162Z,11.09
2023-04-25T12:10:52.019Z,11.16
2023-04-25T12:13:22.929Z,11.24
2023-04-25T12:15:51.980Z,11.21
2023-04-25T12:18:24.727Z,11.25
2023-04-25T12:20:56.775Z,11.34
2023-04-25T12:23:31.518Z,11.37
2023-04-25T12:26:00.451Z,11.34
2023-04-25T12:28:29.523Z,11.31
2023-04-25T12:31:00.490Z,11.26
2023-04-25T12:33:30.896Z,11.12
2023-04-25T12:36:06.467Z,11.07
2023-04-25T12:38:38.786Z,11.00
2023-04-25T12:41:07.995Z,10.99
2023-04-25T12:43:37.527Z,11.01
2023-04-25T12:46:09.598Z,11.02
2023-04-25T12:49:05.310Z,11.12
2023-04-25T12:51:42.711Z,11.17
2023-04-25T12:54:15.447Z,11.11
2023-04-25T12:56:47.458Z,11.12
2023-04-25T12:59:16.789Z,11.11
2023-04-25T13:01:46.774Z,11.01
2023-04-25T13:04:16.362Z,10.98
2023-04-25T13:06:51.058Z,10.97
2023-04-25T13:09:19.922Z,10.96
2023-04-25T13:11:48.581Z,10.97
2023-04-25T13:14:17.489Z,10.95
2023-04-25T13:16:47.023Z,10.87
2023-04-25T13:19:15.608Z,10.83
2023-04-25T13:21:44.471Z,10.81
2023-04-25T13:24:14.581Z,10.78
2023-04-25T13:26:42.892Z,10.71
2023-04-25T13:29:11.898Z,10.78
2023-04-25T13:31:40.448Z,10.78
2023-04-25T13:34:09.099Z,10.80
2023-04-25T13:36:38.362Z,10.80
2023-04-25T13:39:07.617Z,10.77
2023-04-25T13:41:38.040Z,10.80
2023-04-25T13:44:07.072Z,10.86
2023-04-25T13:46:46.207Z,10.88
2023-04-25T13:49:16.015Z,10.87
2023-04-25T13:51:45.513Z,10.95
2023-04-25T13:54:14.485Z,10.94
2023-04-25T13:56:45.409Z,10.88
2023-04-25T13:59:14.407Z,10.83
2023-04-25T14:01:44.123Z,10.76
2023-04-25T14:04:13.088Z,10.68
2023-04-25T14:06:42.657Z,10.61
2023-04-25T14:09:11.853Z,10.56
2023-04-25T14:11:40.736Z,10.55
2023-04-25T14:14:11.265Z,10.54
2023-04-25T14:16:40.509Z,10.56
2023-04-25T14:19:09.565Z,10.56
2023-04-25T14:21:38.227Z,10.58
2023-04-25T14:24:07.816Z,10.55
2023-04-25T14:26:37.831Z,10.48
2023-04-25T14:29:07.553Z,10.50
2023-04-25T14:31:37.918Z,10.45
2023-04-25T14:34:06.930Z,10.34
2023-04-25T14:36:36.239Z,10.28
2023-04-25T14:39:06.328Z,10.25
2023-04-25T14:41:34.964Z,10.22
2023-04-25T14:44:03.705Z,10.27
2023-04-25T14:46:32.903Z,10.31
2023-04-25T14:49:08.693Z,10.33
2023-04-25T14:51:37.583Z,10.28
2023-04-25T14:54:06.495Z,10.30
2023-04-25T14:56:35.546Z,10.33
2023-04-25T14:59:04.590Z,10.37
2023-04-25T15:01:34.000Z,10.34
2023-04-25T15:04:03.301Z,10.30
2023-04-25T15:06:34.541Z,10.23
2023-04-25T15:09:03.304Z,10.22
2023-04-25T15:11:32.206Z,10.23
2023-04-25T15:14:00.846Z,10.27
2023-04-25T15:16:29.816Z,10.24
2023-04-25T15:18:58.550Z,10.22
2023-04-25T15:21:27.747Z,10.20
2023-04-25T15:23:57.759Z,10.19
2023-04-25T15:26:26.615Z,10.19
2023-04-25T15:32:25.970Z,10.10
2023-04-25T15:34:55.084Z,10.10
2023-04-25T15:37:23.843Z,10.07
2023-04-25T15:40:07.668Z,10.01
2023-04-25T15:42:36.817Z,9.91
2023-04-25T15:45:06.504Z,9.84
2023-04-25T15:47:36.833Z,9.81
2023-04-25T15:50:08.708Z,9.74
2023-04-25T15:52:38.616Z,9.73
2023-04-25T15:55:11.401Z,9.62
2023-04-25T15:57:42.621Z,9.53
2023-04-25T16:00:13.546Z,9.52
2023-04-25T16:02:43.368Z,9.48
2023-04-25T16:05:14.815Z,9.44
2023-04-25T16:07:45.176Z,9.39
2023-04-25T16:10:22.415Z,9.36
2023-04-25T16:12:52.311Z,9.35
2023-04-25T16:15:21.196Z,9.31
2023-04-25T16:17:50.255Z,9.29
2023-04-25T16:20:49.620Z,9.25
2023-04-25T16:23:18.372Z,9.25
2023-04-25T16:25:50.841Z,9.20
2023-04-25T16:28:19.766Z,9.20
2023-04-25T16:30:48.537Z,9.19
2023-04-25T16:33:22.711Z,9.18
2023-04-25T16:35:52.740Z,9.12
2023-04-25T16:38:23.557Z,9.09
2023-04-25T16:40:57.507Z,9.10
2023-04-25T16:43:26.497Z,9.08
2023-04-25T16:45:55.274Z,9.09
2023-04-25T16:48:24.774Z,9.08
2023-04-25T16:50:56.381Z,9.02
2023-04-25T16:53:25.488Z,9.03
2023-04-25T16:55:57.764Z,9.00
2023-04-25T16:58:32.451Z,8.93
2023-04-25T17:01:03.054Z,8.91
2023-04-25T17:03:35.680Z,8.92
2023-04-25T17:06:09.214Z,8.92
2023-04-25T17:08:42.288Z,8.92
2023-04-25T17:11:17.298Z,8.89
2023-04-25T17:13:58.168Z,8.92
2023-04-25T17:16:37.253Z,8.92
2023-04-25T17:19:07.707Z,8.89
2023-04-25T17:21:36.616Z,8.88
2023-04-25T17:24:11.467Z,8.83
2023-04-25T17:26:48.673Z,8.76
2023-04-25T17:29:20.359Z,8.71
2023-04-25T17:31:48.766Z,8.67
2023-04-25T17:34:18.370Z,8.61
2023-04-25T17:37:14.647Z,8.54
2023-04-25T17:39:47.641Z,8.48
2023-04-25T17:42:24.315Z,8.43
2023-04-25T17:44:57.490Z,8.41
2023-04-25T17:47:32.217Z,8.35
2023-04-25T17:50:00.874Z,8.33
2023-04-25T17:52:55.375Z,8.31
2023-04-25T17:55:25.174Z,8.32
2023-04-25T17:57:55.125Z,8.32
2023-04-25T18:00:23.893Z,8.32
2023-04-25T18:02:58.161Z,8.35
2023-04-25T18:05:31.278Z,8.37
2023-04-25T18:08:09.334Z,8.35
2023-04-25T18:11:25.140Z,8.35
2023-04-25T18:13:55.796Z,8.33
2023-04-25T18:16:55.482Z,8.34
2023-04-25T18:19:25.373Z,8.33
2023-04-25T18:22:24.527Z,8.31
2023-04-25T18:25:06.544Z,8.28
2023-04-25T18:27:44.739Z,8.20
2023-04-25T18:30:23.576Z,8.26
2023-04-25T18:32:52.557Z,8.25
2023-04-25T18:35:21.520Z,8.24
2023-04-25T18:37:50.229Z,8.24
2023-04-25T18:40:32.741Z,8.25
2023-04-25T18:43:02.504Z,8.25
2023-04-25T18:45:41.813Z,8.27
2023-04-25T18:51:22.331Z,8.27
2023-04-25T18:53:59.573Z,8.26
2023-04-25T18:56:48.922Z,8.24
2023-04-25T18:59:18.359Z,8.22
2023-04-25T19:01:51.215Z,8.21
2023-04-25T19:04:19.894Z,8.19
2023-04-25T19:06:50.173Z,8.22
2023-04-25T19:09:18.765Z,8.23
2023-04-25T19:11:47.703Z,8.20
2023-04-25T19:14:16.458Z,8.21
2023-04-25T19:16:45.093Z,8.20
2023-04-25T19:19:15.158Z,8.24
2023-04-25T19:21:44.118Z,8.24
2023-04-25T19:24:12.681Z,8.23
2023-04-25T19:26:41.100Z,8.19
2023-04-25T19:29:10.727Z,8.18
2023-04-25T19:31:40.924Z,8.18
2023-04-25T19:34:10.648Z,8.16
2023-04-25T19:36:42.031Z,8.15
2023-04-25T19:39:11.542Z,8.18
2023-04-25T19:41:40.801Z,8.17
2023-04-25T19:44:10.707Z,8.15
2023-04-25T19:46:40.228Z,8.13
2023-04-25T19:49:09.275Z,8.15
2023-04-25T19:51:38.344Z,8.15
2023-04-25T19:54:08.476Z,8.16
2023-04-25T19:56:37.373Z,8.17
2023-04-25T19:59:06.116Z,8.18
2023-04-25T20:01:34.729Z,8.16
2023-04-25T20:04:03.366Z,8.15
2023-04-25T20:06:32.873Z,8.13
2023-04-25T20:09:01.923Z,8.12
2023-04-25T20:11:31.881Z,8.09
2023-04-25T20:14:01.531Z,8.11
2023-04-25T20:16:30.245Z,8.07
2023-04-25T20:18:59.485Z,8.08
2023-04-25T20:21:29.006Z,8.05
2023-04-25T20:23:58.222Z,8.06
2023-04-25T20:26:26.888Z,8.04
2023-04-25T20:28:58.815Z,8.04
2023-04-25T20:31:27.719Z,8.03
2023-04-25T20:33:56.251Z,8.02
2023-04-25T20:36:25.652Z,8.00
2023-04-25T20:38:54.966Z,7.97
2023-04-25T20:41:23.735Z,7.98
2023-04-25T20:43:53.393Z,7.96
2023-04-25T20:46:23.354Z,7.94
2023-04-25T20:48:53.161Z,7.93
2023-04-25T20:51:21.893Z,7.94
2023-04-25T20:53:50.583Z,8.01
2023-04-25T20:56:20.816Z,8.03
2023-04-25T20:58:49.971Z,8.04
2023-04-25T21:01:18.755Z,8.06
2023-04-25T21:03:50.179Z,8.06
2023-04-25T21:06:18.828Z,8.08
2023-04-25T21:08:47.851Z,8.06
2023-04-25T21:11:16.437Z,8.09
2023-04-25T21:13:45.053Z,8.12
2023-04-25T21:16:13.896Z,8.13
2023-04-25T21:18:42.463Z,8.15
2023-04-25T21:21:12.384Z,8.16
2023-04-25T21:23:40.995Z,8.15
2023-04-25T21:26:09.711Z,8.15
2023-04-25T21:28:38.356Z,8.13
2023-04-25T21:31:07.166Z,8.13
2023-04-25T21:33:35.867Z,8.13
2023-04-25T21:36:04.718Z,8.13
2023-04-25T21:38:34.817Z,8.12
2023-04-25T21:41:03.727Z,8.11
2023-04-25T21:43:32.713Z,8.11
2023-04-25T21:48:32.795Z,8.11
2023-04-25T21:51:01.500Z,8.13
2023-04-25T21:53:29.995Z,8.16
2023-04-25T21:56:00.044Z,8.18
2023-04-25T21:58:28.575Z,8.17
2023-04-25T22:00:57.061Z,8.18
2023-04-25T22:03:25.777Z,8.18
2023-04-25T22:05:54.963Z,8.20
2023-04-25T22:08:23.854Z,8.22
2023-04-25T22:10:55.460Z,8.23
2023-04-25T22:13:26.037Z,8.26
2023-04-25T22:15:54.728Z,8.28
2023-04-25T22:18:24.063Z,8.32
2023-04-25T22:20:53.405Z,8.37
2023-04-25T22:23:22.781Z,8.37
2023-04-25T22:25:51.289Z,8.33
2023-04-25T22:28:19.778Z,8.32
2023-04-25T22:30:50.594Z,8.31
2023-04-25T22:33:19.278Z,8.27
2023-04-25T22:35:47.763Z,8.21
2023-04-25T22:38:16.852Z,8.17
2023-04-25T22:40:48.092Z,8.13
2023-04-25T22:43:16.968Z,8.10
2023-04-25T22:45:45.350Z,8.06
2023-04-25T22:48:15.137Z,8.08
2023-04-25T22:50:43.563Z,8.07
2023-04-25T22:53:13.667Z,8.06
2023-04-25T22:55:42.314Z,7.94
2023-04-25T22:58:10.923Z,7.90
2023-04-25T23:00:39.620Z,7.84
2023-04-25T23:03:08.282Z,7.83
2023-04-25T23:05:38.571Z,7.77
2023-04-25T23:08:07.298Z,7.73
2023-04-25T23:10:35.767Z,7.74
2023-04-25T23:13:06.200Z,7.76
2023-04-25T23:15:35.018Z,7.77
2023-04-25T23:18:03.976Z,7.80
2023-04-25T23:20:33.834Z,7.83
2023-04-25T23:23:03.763Z,7.89
2023-04-25T23:25:32.673Z,7.86
2023-04-25T23:28:01.192Z,7.87
2023-04-25T23:30:29.824Z,7.87
2023-04-25T23:32:58.694Z,7.86
2023-04-25T23:35:28.145Z,7.83
2023-04-25T23:37:58.243Z,7.84
2023-04-25T23:40:29.935Z,7.83
2023-04-25T23:42:58.938Z,7.81
2023-04-25T23:45:27.340Z,7.78
2023-04-25T23:47:56.589Z,7.78
2023-04-25T23:50:25.210Z,7.76
2023-04-25T23:52:53.666Z,7.76
2023-04-25T23:55:22.938Z,7.78
2023-04-25T23:57:52.810Z,7.73
